sensor_id;sensor_type;location;lat;lon;timestamp;P1;durP1;ratioP1;P2;durP2;ratioP2
75456;SDS011;64036;48.266;14.192;2024-03-08T00:00:24;42.50;;;20.50;;
75456;SDS011;64036;48.266;14.192;2024-03-08T00:02:49;41.70;;;18.80;;
75456;SDS011;64036;48.266;14.192;2024-03-08T00:05:19;42.10;;;19.70;;
75456;SDS011;64036;48.266;14.192;2024-03-08T00:07:46;44.90;;;19.50;;
75456;SDS011;64036;48.266;14.192;2024-03-08T00:10:13;49.00;;;21.70;;
75456;SDS011;64036;48.266;14.192;2024-03-08T00:12:44;36.20;;;19.30;;
75456;SDS011;64036;48.266;14.192;2024-03-08T00:15:10;41.30;;;20.20;;
75456;SDS011;64036;48.266;14.192;2024-03-08T00:17:41;42.10;;;21.10;;
75456;SDS011;64036;48.266;14.192;2024-03-08T00:20:07;42.20;;;20.40;;
75456;SDS011;64036;48.266;14.192;2024-03-08T00:22:37;39.40;;;18.20;;
75456;SDS011;64036;48.266;14.192;2024-03-08T00:25:07;40.30;;;19.70;;
75456;SDS011;64036;48.266;14.192;2024-03-08T00:27:37;41.60;;;20.60;;
75456;SDS011;64036;48.266;14.192;2024-03-08T00:30:04;44.70;;;20.60;;
75456;SDS011;64036;48.266;14.192;2024-03-08T00:32:30;42.50;;;19.60;;
75456;SDS011;64036;48.266;14.192;2024-03-08T00:34:57;43.00;;;19.40;;
75456;SDS011;64036;48.266;14.192;2024-03-08T00:37:23;41.70;;;18.90;;
75456;SDS011;64036;48.266;14.192;2024-03-08T00:39:51;40.50;;;20.20;;
75456;SDS011;64036;48.266;14.192;2024-03-08T00:42:18;49.20;;;21.50;;
75456;SDS011;64036;48.266;14.192;2024-03-08T00:44:44;45.70;;;22.90;;
75456;SDS011;64036;48.266;14.192;2024-03-08T00:47:10;44.60;;;22.10;;
75456;SDS011;64036;48.266;14.192;2024-03-08T00:49:37;39.60;;;19.30;;
75456;SDS011;64036;48.266;14.192;2024-03-08T00:52:06;48.20;;;22.70;;
75456;SDS011;64036;48.266;14.192;2024-03-08T00:54:35;41.00;;;20.30;;
75456;SDS011;64036;48.266;14.192;2024-03-08T00:57:03;42.90;;;20.40;;
75456;SDS011;64036;48.266;14.192;2024-03-08T00:59:30;47.40;;;20.50;;
75456;SDS011;64036;48.266;14.192;2024-03-08T01:02:02;42.10;;;20.30;;
75456;SDS011;64036;48.266;14.192;2024-03-08T01:04:28;46.70;;;22.50;;
75456;SDS011;64036;48.266;14.192;2024-03-08T01:06:58;35.80;;;17.60;;
75456;SDS011;64036;48.266;14.192;2024-03-08T01:09:25;46.70;;;22.00;;
75456;SDS011;64036;48.266;14.192;2024-03-08T01:11:55;44.50;;;20.30;;
75456;SDS011;64036;48.266;14.192;2024-03-08T01:14:22;47.60;;;20.90;;
75456;SDS011;64036;48.266;14.192;2024-03-08T01:16:48;43.80;;;22.40;;
75456;SDS011;64036;48.266;14.192;2024-03-08T01:19:15;42.50;;;19.60;;
75456;SDS011;64036;48.266;14.192;2024-03-08T01:21:41;51.80;;;22.50;;
75456;SDS011;64036;48.266;14.192;2024-03-08T01:24:07;44.40;;;19.90;;
75456;SDS011;64036;48.266;14.192;2024-03-08T01:26:33;44.90;;;22.30;;
75456;SDS011;64036;48.266;14.192;2024-03-08T01:29:00;44.70;;;20.10;;
75456;SDS011;64036;48.266;14.192;2024-03-08T01:31:29;46.90;;;20.90;;
75456;SDS011;64036;48.266;14.192;2024-03-08T01:33:56;43.40;;;20.70;;
75456;SDS011;64036;48.266;14.192;2024-03-08T01:36:22;48.30;;;22.00;;
75456;SDS011;64036;48.266;14.192;2024-03-08T01:38:48;50.10;;;22.90;;
75456;SDS011;64036;48.266;14.192;2024-03-08T01:41:14;43.90;;;22.10;;
75456;SDS011;64036;48.266;14.192;2024-03-08T01:43:43;53.20;;;22.70;;
75456;SDS011;64036;48.266;14.192;2024-03-08T01:46:13;41.00;;;18.40;;
75456;SDS011;64036;48.266;14.192;2024-03-08T01:48:42;47.70;;;22.60;;
75456;SDS011;64036;48.266;14.192;2024-03-08T01:51:10;48.60;;;22.60;;
75456;SDS011;64036;48.266;14.192;2024-03-08T01:53:37;47.10;;;21.80;;
75456;SDS011;64036;48.266;14.192;2024-03-08T01:56:05;48.90;;;23.60;;
75456;SDS011;64036;48.266;14.192;2024-03-08T01:58:31;50.30;;;24.20;;
75456;SDS011;64036;48.266;14.192;2024-03-08T02:00:58;52.70;;;23.70;;
75456;SDS011;64036;48.266;14.192;2024-03-08T02:03:25;50.10;;;22.40;;
75456;SDS011;64036;48.266;14.192;2024-03-08T02:05:51;40.90;;;19.00;;
75456;SDS011;64036;48.266;14.192;2024-03-08T02:08:17;48.30;;;23.70;;
75456;SDS011;64036;48.266;14.192;2024-03-08T02:10:46;44.10;;;21.70;;
75456;SDS011;64036;48.266;14.192;2024-03-08T02:13:12;49.30;;;24.00;;
75456;SDS011;64036;48.266;14.192;2024-03-08T02:15:52;45.80;;;22.50;;
75456;SDS011;64036;48.266;14.192;2024-03-08T02:18:19;42.10;;;20.60;;
75456;SDS011;64036;48.266;14.192;2024-03-08T02:20:52;47.50;;;21.40;;
75456;SDS011;64036;48.266;14.192;2024-03-08T02:23:22;46.30;;;21.50;;
75456;SDS011;64036;48.266;14.192;2024-03-08T02:25:49;48.10;;;21.70;;
75456;SDS011;64036;48.266;14.192;2024-03-08T02:28:15;47.80;;;21.80;;
75456;SDS011;64036;48.266;14.192;2024-03-08T02:30:41;41.20;;;19.60;;
75456;SDS011;64036;48.266;14.192;2024-03-08T02:33:07;47.70;;;20.60;;
75456;SDS011;64036;48.266;14.192;2024-03-08T02:35:36;47.70;;;22.10;;
75456;SDS011;64036;48.266;14.192;2024-03-08T02:38:04;54.00;;;25.40;;
75456;SDS011;64036;48.266;14.192;2024-03-08T02:40:29;41.30;;;19.90;;
75456;SDS011;64036;48.266;14.192;2024-03-08T02:42:56;47.50;;;23.90;;
75456;SDS011;64036;48.266;14.192;2024-03-08T02:45:22;43.70;;;21.00;;
75456;SDS011;64036;48.266;14.192;2024-03-08T02:47:47;49.10;;;22.40;;
75456;SDS011;64036;48.266;14.192;2024-03-08T02:50:16;47.60;;;22.10;;
75456;SDS011;64036;48.266;14.192;2024-03-08T02:52:47;40.20;;;18.80;;
75456;SDS011;64036;48.266;14.192;2024-03-08T02:55:13;44.00;;;21.20;;
75456;SDS011;64036;48.266;14.192;2024-03-08T02:57:41;44.80;;;20.60;;
75456;SDS011;64036;48.266;14.192;2024-03-08T03:00:09;46.00;;;21.30;;
75456;SDS011;64036;48.266;14.192;2024-03-08T03:02:36;36.10;;;18.90;;
75456;SDS011;64036;48.266;14.192;2024-03-08T03:05:03;26.60;;;14.30;;
75456;SDS011;64036;48.266;14.192;2024-03-08T03:07:33;48.60;;;20.90;;
75456;SDS011;64036;48.266;14.192;2024-03-08T03:09:59;50.70;;;21.80;;
75456;SDS011;64036;48.266;14.192;2024-03-08T03:12:28;45.60;;;21.70;;
75456;SDS011;64036;48.266;14.192;2024-03-08T03:14:55;51.60;;;22.90;;
75456;SDS011;64036;48.266;14.192;2024-03-08T03:17:25;45.80;;;19.20;;
75456;SDS011;64036;48.266;14.192;2024-03-08T03:19:51;49.30;;;21.30;;
75456;SDS011;64036;48.266;14.192;2024-03-08T03:22:18;39.90;;;19.90;;
75456;SDS011;64036;48.266;14.192;2024-03-08T03:24:45;41.30;;;19.60;;
75456;SDS011;64036;48.266;14.192;2024-03-08T03:27:14;48.80;;;21.40;;
75456;SDS011;64036;48.266;14.192;2024-03-08T03:29:41;47.80;;;21.80;;
75456;SDS011;64036;48.266;14.192;2024-03-08T03:32:13;46.10;;;20.00;;
75456;SDS011;64036;48.266;14.192;2024-03-08T03:34:40;46.50;;;19.40;;
75456;SDS011;64036;48.266;14.192;2024-03-08T03:37:08;45.90;;;21.50;;
75456;SDS011;64036;48.266;14.192;2024-03-08T03:39:37;47.00;;;21.10;;
75456;SDS011;64036;48.266;14.192;2024-03-08T03:42:19;44.90;;;20.10;;
75456;SDS011;64036;48.266;14.192;2024-03-08T03:44:46;46.70;;;20.40;;
75456;SDS011;64036;48.266;14.192;2024-03-08T03:47:13;46.50;;;20.60;;
75456;SDS011;64036;48.266;14.192;2024-03-08T03:49:42;45.60;;;21.50;;
75456;SDS011;64036;48.266;14.192;2024-03-08T03:52:11;47.00;;;19.60;;
75456;SDS011;64036;48.266;14.192;2024-03-08T03:54:40;49.10;;;21.70;;
75456;SDS011;64036;48.266;14.192;2024-03-08T03:57:06;45.50;;;21.10;;
75456;SDS011;64036;48.266;14.192;2024-03-08T03:59:33;51.10;;;22.60;;
75456;SDS011;64036;48.266;14.192;2024-03-08T04:01:59;43.90;;;20.50;;
75456;SDS011;64036;48.266;14.192;2024-03-08T04:04:25;47.20;;;21.40;;
75456;SDS011;64036;48.266;14.192;2024-03-08T04:06:50;44.10;;;19.90;;
75456;SDS011;64036;48.266;14.192;2024-03-08T04:09:17;30.70;;;15.90;;
75456;SDS011;64036;48.266;14.192;2024-03-08T04:11:45;44.80;;;21.20;;
75456;SDS011;64036;48.266;14.192;2024-03-08T04:14:11;42.60;;;19.20;;
75456;SDS011;64036;48.266;14.192;2024-03-08T04:16:37;41.70;;;19.00;;
75456;SDS011;64036;48.266;14.192;2024-03-08T04:19:03;40.00;;;17.00;;
75456;SDS011;64036;48.266;14.192;2024-03-08T04:21:32;40.30;;;19.70;;
75456;SDS011;64036;48.266;14.192;2024-03-08T04:23:58;38.20;;;17.80;;
75456;SDS011;64036;48.266;14.192;2024-03-08T04:26:27;37.90;;;17.60;;
75456;SDS011;64036;48.266;14.192;2024-03-08T04:28:53;41.20;;;18.60;;
75456;SDS011;64036;48.266;14.192;2024-03-08T04:31:19;41.40;;;18.80;;
75456;SDS011;64036;48.266;14.192;2024-03-08T04:33:45;39.80;;;18.00;;
75456;SDS011;64036;48.266;14.192;2024-03-08T04:36:10;25.80;;;11.00;;
75456;SDS011;64036;48.266;14.192;2024-03-08T04:38:39;38.70;;;17.10;;
75456;SDS011;64036;48.266;14.192;2024-03-08T04:41:06;35.40;;;16.30;;
75456;SDS011;64036;48.266;14.192;2024-03-08T04:43:33;43.10;;;20.60;;
75456;SDS011;64036;48.266;14.192;2024-03-08T04:46:02;41.00;;;19.70;;
75456;SDS011;64036;48.266;14.192;2024-03-08T04:48:31;43.10;;;19.10;;
75456;SDS011;64036;48.266;14.192;2024-03-08T04:50:57;42.70;;;19.80;;
75456;SDS011;64036;48.266;14.192;2024-03-08T04:53:23;42.70;;;19.80;;
75456;SDS011;64036;48.266;14.192;2024-03-08T04:55:49;43.50;;;18.80;;
75456;SDS011;64036;48.266;14.192;2024-03-08T04:58:15;38.70;;;18.30;;
75456;SDS011;64036;48.266;14.192;2024-03-08T05:00:41;42.30;;;18.80;;
75456;SDS011;64036;48.266;14.192;2024-03-08T05:03:07;47.00;;;17.90;;
75456;SDS011;64036;48.266;14.192;2024-03-08T05:05:33;41.50;;;19.00;;
75456;SDS011;64036;48.266;14.192;2024-03-08T05:07:58;36.70;;;18.30;;
75456;SDS011;64036;48.266;14.192;2024-03-08T05:10:26;40.00;;;18.20;;
75456;SDS011;64036;48.266;14.192;2024-03-08T05:12:55;41.20;;;18.40;;
75456;SDS011;64036;48.266;14.192;2024-03-08T05:15:21;29.50;;;14.20;;
75456;SDS011;64036;48.266;14.192;2024-03-08T05:17:47;39.00;;;19.10;;
75456;SDS011;64036;48.266;14.192;2024-03-08T05:20:13;43.70;;;19.70;;
75456;SDS011;64036;48.266;14.192;2024-03-08T05:22:39;40.90;;;20.30;;
75456;SDS011;64036;48.266;14.192;2024-03-08T05:25:06;37.60;;;18.50;;
75456;SDS011;64036;48.266;14.192;2024-03-08T05:27:36;42.30;;;18.80;;
75456;SDS011;64036;48.266;14.192;2024-03-08T05:30:03;44.60;;;20.10;;
75456;SDS011;64036;48.266;14.192;2024-03-08T05:32:32;43.80;;;20.00;;
75456;SDS011;64036;48.266;14.192;2024-03-08T05:34:58;39.70;;;19.50;;
75456;SDS011;64036;48.266;14.192;2024-03-08T05:37:24;38.90;;;17.90;;
75456;SDS011;64036;48.266;14.192;2024-03-08T05:39:49;39.20;;;18.40;;
75456;SDS011;64036;48.266;14.192;2024-03-08T05:42:24;40.20;;;19.40;;
75456;SDS011;64036;48.266;14.192;2024-03-08T05:44:49;43.10;;;21.00;;
75456;SDS011;64036;48.266;14.192;2024-03-08T05:47:15;39.30;;;18.30;;
75456;SDS011;64036;48.266;14.192;2024-03-08T05:49:44;42.40;;;19.70;;
75456;SDS011;64036;48.266;14.192;2024-03-08T05:52:10;41.20;;;20.20;;
75456;SDS011;64036;48.266;14.192;2024-03-08T05:54:36;44.40;;;19.70;;
75456;SDS011;64036;48.266;14.192;2024-03-08T05:57:02;41.50;;;20.30;;
75456;SDS011;64036;48.266;14.192;2024-03-08T05:59:28;36.10;;;18.10;;
75456;SDS011;64036;48.266;14.192;2024-03-08T06:01:57;27.60;;;13.10;;
75456;SDS011;64036;48.266;14.192;2024-03-08T06:04:23;37.80;;;18.40;;
75456;SDS011;64036;48.266;14.192;2024-03-08T06:06:49;39.00;;;18.80;;
75456;SDS011;64036;48.266;14.192;2024-03-08T06:09:17;41.40;;;20.60;;
75456;SDS011;64036;48.266;14.192;2024-03-08T06:11:48;44.20;;;20.40;;
75456;SDS011;64036;48.266;14.192;2024-03-08T06:14:14;42.90;;;21.20;;
75456;SDS011;64036;48.266;14.192;2024-03-08T06:16:44;40.50;;;21.30;;
75456;SDS011;64036;48.266;14.192;2024-03-08T06:19:10;40.70;;;21.10;;
75456;SDS011;64036;48.266;14.192;2024-03-08T06:21:37;39.90;;;20.40;;
75456;SDS011;64036;48.266;14.192;2024-03-08T06:24:03;37.10;;;20.30;;
75456;SDS011;64036;48.266;14.192;2024-03-08T06:26:28;37.10;;;20.90;;
75456;SDS011;64036;48.266;14.192;2024-03-08T06:28:55;35.60;;;20.80;;
75456;SDS011;64036;48.266;14.192;2024-03-08T06:31:21;34.50;;;21.10;;
75456;SDS011;64036;48.266;14.192;2024-03-08T06:33:46;33.80;;;20.20;;
75456;SDS011;64036;48.266;14.192;2024-03-08T06:36:16;34.40;;;20.50;;
75456;SDS011;64036;48.266;14.192;2024-03-08T06:38:47;31.80;;;19.80;;
75456;SDS011;64036;48.266;14.192;2024-03-08T06:41:14;30.80;;;18.50;;
75456;SDS011;64036;48.266;14.192;2024-03-08T06:43:47;29.40;;;19.10;;
75456;SDS011;64036;48.266;14.192;2024-03-08T06:46:17;30.00;;;17.30;;
75456;SDS011;64036;48.266;14.192;2024-03-08T06:48:43;28.00;;;19.00;;
75456;SDS011;64036;48.266;14.192;2024-03-08T06:51:11;26.30;;;18.00;;
75456;SDS011;64036;48.266;14.192;2024-03-08T06:53:36;27.20;;;17.30;;
75456;SDS011;64036;48.266;14.192;2024-03-08T06:56:04;26.20;;;17.40;;
75456;SDS011;64036;48.266;14.192;2024-03-08T06:58:29;26.00;;;17.40;;
75456;SDS011;64036;48.266;14.192;2024-03-08T07:00:55;28.90;;;19.50;;
75456;SDS011;64036;48.266;14.192;2024-03-08T07:03:24;25.30;;;17.80;;
75456;SDS011;64036;48.266;14.192;2024-03-08T07:05:49;24.20;;;16.60;;
75456;SDS011;64036;48.266;14.192;2024-03-08T07:08:15;26.30;;;16.20;;
75456;SDS011;64036;48.266;14.192;2024-03-08T07:10:42;27.40;;;19.90;;
75456;SDS011;64036;48.266;14.192;2024-03-08T07:13:10;26.40;;;18.80;;
75456;SDS011;64036;48.266;14.192;2024-03-08T07:15:36;24.40;;;16.70;;
75456;SDS011;64036;48.266;14.192;2024-03-08T07:18:02;25.10;;;18.20;;
75456;SDS011;64036;48.266;14.192;2024-03-08T07:20:28;24.70;;;19.00;;
75456;SDS011;64036;48.266;14.192;2024-03-08T07:22:54;21.40;;;15.50;;
75456;SDS011;64036;48.266;14.192;2024-03-08T07:25:19;23.60;;;18.30;;
75456;SDS011;64036;48.266;14.192;2024-03-08T07:27:51;23.10;;;17.70;;
75456;SDS011;64036;48.266;14.192;2024-03-08T07:30:18;21.60;;;15.60;;
75456;SDS011;64036;48.266;14.192;2024-03-08T07:33:04;23.20;;;17.10;;
75456;SDS011;64036;48.266;14.192;2024-03-08T07:35:31;23.20;;;17.10;;
75456;SDS011;64036;48.266;14.192;2024-03-08T07:37:57;23.70;;;16.80;;
75456;SDS011;64036;48.266;14.192;2024-03-08T07:40:28;21.90;;;16.50;;
75456;SDS011;64036;48.266;14.192;2024-03-08T07:42:53;22.20;;;17.00;;
75456;SDS011;64036;48.266;14.192;2024-03-08T07:45:19;17.90;;;13.90;;
75456;SDS011;64036;48.266;14.192;2024-03-08T07:47:47;21.80;;;16.70;;
75456;SDS011;64036;48.266;14.192;2024-03-08T07:50:12;19.60;;;15.40;;
75456;SDS011;64036;48.266;14.192;2024-03-08T07:52:41;25.20;;;18.50;;
75456;SDS011;64036;48.266;14.192;2024-03-08T07:55:08;20.90;;;17.60;;
75456;SDS011;64036;48.266;14.192;2024-03-08T07:57:35;19.30;;;15.70;;
75456;SDS011;64036;48.266;14.192;2024-03-08T08:00:05;20.90;;;15.80;;
75456;SDS011;64036;48.266;14.192;2024-03-08T08:02:33;20.00;;;15.20;;
75456;SDS011;64036;48.266;14.192;2024-03-08T08:05:00;19.30;;;15.20;;
75456;SDS011;64036;48.266;14.192;2024-03-08T08:07:26;22.50;;;15.70;;
75456;SDS011;64036;48.266;14.192;2024-03-08T08:09:53;21.80;;;16.80;;
75456;SDS011;64036;48.266;14.192;2024-03-08T08:12:18;20.70;;;16.10;;
75456;SDS011;64036;48.266;14.192;2024-03-08T08:14:44;21.40;;;15.60;;
75456;SDS011;64036;48.266;14.192;2024-03-08T08:17:10;20.00;;;15.00;;
75456;SDS011;64036;48.266;14.192;2024-03-08T08:19:37;18.70;;;14.80;;
75456;SDS011;64036;48.266;14.192;2024-03-08T08:22:03;21.20;;;16.50;;
75456;SDS011;64036;48.266;14.192;2024-03-08T08:24:29;19.20;;;15.40;;
75456;SDS011;64036;48.266;14.192;2024-03-08T08:26:55;19.40;;;15.40;;
75456;SDS011;64036;48.266;14.192;2024-03-08T08:29:21;18.10;;;13.80;;
75456;SDS011;64036;48.266;14.192;2024-03-08T08:31:48;18.40;;;13.00;;
75456;SDS011;64036;48.266;14.192;2024-03-08T08:34:16;18.80;;;14.00;;
75456;SDS011;64036;48.266;14.192;2024-03-08T08:36:44;16.40;;;13.10;;
75456;SDS011;64036;48.266;14.192;2024-03-08T08:39:10;18.60;;;13.10;;
75456;SDS011;64036;48.266;14.192;2024-03-08T08:41:39;19.10;;;13.40;;
75456;SDS011;64036;48.266;14.192;2024-03-08T08:44:07;19.20;;;12.80;;
75456;SDS011;64036;48.266;14.192;2024-03-08T08:46:36;18.20;;;13.50;;
75456;SDS011;64036;48.266;14.192;2024-03-08T08:49:06;18.20;;;13.00;;
75456;SDS011;64036;48.266;14.192;2024-03-08T08:53:59;19.40;;;13.50;;
75456;SDS011;64036;48.266;14.192;2024-03-08T08:56:25;17.70;;;13.20;;
75456;SDS011;64036;48.266;14.192;2024-03-08T08:58:54;17.70;;;12.90;;
75456;SDS011;64036;48.266;14.192;2024-03-08T09:01:20;18.60;;;13.00;;
75456;SDS011;64036;48.266;14.192;2024-03-08T09:03:46;15.90;;;12.20;;
75456;SDS011;64036;48.266;14.192;2024-03-08T09:06:12;16.80;;;12.10;;
75456;SDS011;64036;48.266;14.192;2024-03-08T09:08:42;17.20;;;11.60;;
75456;SDS011;64036;48.266;14.192;2024-03-08T09:11:09;16.10;;;12.70;;
75456;SDS011;64036;48.266;14.192;2024-03-08T09:13:35;17.80;;;12.50;;
75456;SDS011;64036;48.266;14.192;2024-03-08T09:16:02;18.30;;;12.60;;
75456;SDS011;64036;48.266;14.192;2024-03-08T09:18:30;13.00;;;9.30;;
75456;SDS011;64036;48.266;14.192;2024-03-08T09:20:58;17.50;;;11.90;;
75456;SDS011;64036;48.266;14.192;2024-03-08T09:23:25;17.40;;;11.50;;
75456;SDS011;64036;48.266;14.192;2024-03-08T09:25:56;17.00;;;12.40;;
75456;SDS011;64036;48.266;14.192;2024-03-08T09:28:25;17.80;;;12.30;;
75456;SDS011;64036;48.266;14.192;2024-03-08T09:30:52;15.10;;;10.80;;
75456;SDS011;64036;48.266;14.192;2024-03-08T09:33:18;17.10;;;11.50;;
75456;SDS011;64036;48.266;14.192;2024-03-08T09:35:48;16.80;;;11.40;;
75456;SDS011;64036;48.266;14.192;2024-03-08T09:38:14;17.70;;;11.00;;
75456;SDS011;64036;48.266;14.192;2024-03-08T09:40:43;15.30;;;10.50;;
75456;SDS011;64036;48.266;14.192;2024-03-08T09:43:09;17.20;;;10.20;;
75456;SDS011;64036;48.266;14.192;2024-03-08T09:45:40;15.20;;;9.40;;
75456;SDS011;64036;48.266;14.192;2024-03-08T09:48:11;16.90;;;11.40;;
75456;SDS011;64036;48.266;14.192;2024-03-08T09:50:40;17.00;;;11.00;;
75456;SDS011;64036;48.266;14.192;2024-03-08T09:53:06;16.60;;;10.70;;
75456;SDS011;64036;48.266;14.192;2024-03-08T09:55:38;13.50;;;8.90;;
75456;SDS011;64036;48.266;14.192;2024-03-08T09:58:16;17.50;;;11.10;;
75456;SDS011;64036;48.266;14.192;2024-03-08T10:00:52;17.50;;;11.80;;
75456;SDS011;64036;48.266;14.192;2024-03-08T10:03:19;15.20;;;10.60;;
75456;SDS011;64036;48.266;14.192;2024-03-08T10:05:48;18.00;;;11.90;;
75456;SDS011;64036;48.266;14.192;2024-03-08T10:08:14;17.30;;;12.00;;
75456;SDS011;64036;48.266;14.192;2024-03-08T10:10:39;16.90;;;10.60;;
75456;SDS011;64036;48.266;14.192;2024-03-08T10:13:09;16.90;;;10.50;;
75456;SDS011;64036;48.266;14.192;2024-03-08T10:15:39;15.70;;;10.60;;
75456;SDS011;64036;48.266;14.192;2024-03-08T10:18:05;14.80;;;10.40;;
75456;SDS011;64036;48.266;14.192;2024-03-08T10:20:32;15.00;;;9.90;;
75456;SDS011;64036;48.266;14.192;2024-03-08T10:23:02;14.00;;;9.30;;
75456;SDS011;64036;48.266;14.192;2024-03-08T10:25:30;18.70;;;11.40;;
75456;SDS011;64036;48.266;14.192;2024-03-08T10:27:57;15.10;;;10.10;;
75456;SDS011;64036;48.266;14.192;2024-03-08T10:30:23;16.80;;;10.30;;
75456;SDS011;64036;48.266;14.192;2024-03-08T10:32:49;15.80;;;10.60;;
75456;SDS011;64036;48.266;14.192;2024-03-08T10:35:15;17.00;;;9.50;;
75456;SDS011;64036;48.266;14.192;2024-03-08T10:40:19;15.30;;;9.80;;
75456;SDS011;64036;48.266;14.192;2024-03-08T10:42:56;12.60;;;7.90;;
75456;SDS011;64036;48.266;14.192;2024-03-08T10:50:57;17.60;;;10.60;;
75456;SDS011;64036;48.266;14.192;2024-03-08T10:53:26;15.50;;;8.90;;
75456;SDS011;64036;48.266;14.192;2024-03-08T10:55:53;13.60;;;8.50;;
75456;SDS011;64036;48.266;14.192;2024-03-08T10:58:27;15.50;;;9.10;;
75456;SDS011;64036;48.266;14.192;2024-03-08T11:00:56;13.70;;;7.90;;
75456;SDS011;64036;48.266;14.192;2024-03-08T11:06:08;13.10;;;7.70;;
75456;SDS011;64036;48.266;14.192;2024-03-08T11:08:37;13.70;;;8.60;;
75456;SDS011;64036;48.266;14.192;2024-03-08T11:11:04;15.00;;;7.90;;
75456;SDS011;64036;48.266;14.192;2024-03-08T11:13:42;16.30;;;8.60;;
75456;SDS011;64036;48.266;14.192;2024-03-08T11:16:12;13.30;;;8.20;;
75456;SDS011;64036;48.266;14.192;2024-03-08T11:18:59;18.50;;;9.60;;
75456;SDS011;64036;48.266;14.192;2024-03-08T11:21:32;13.80;;;8.60;;
75456;SDS011;64036;48.266;14.192;2024-03-08T11:24:11;15.50;;;9.80;;
75456;SDS011;64036;48.266;14.192;2024-03-08T11:26:39;15.40;;;9.10;;
75456;SDS011;64036;48.266;14.192;2024-03-08T11:32:16;15.00;;;8.90;;
75456;SDS011;64036;48.266;14.192;2024-03-08T11:34:46;14.20;;;8.10;;
75456;SDS011;64036;48.266;14.192;2024-03-08T11:37:19;13.70;;;7.90;;
75456;SDS011;64036;48.266;14.192;2024-03-08T11:39:49;17.20;;;8.30;;
75456;SDS011;64036;48.266;14.192;2024-03-08T11:42:18;13.20;;;7.80;;
75456;SDS011;64036;48.266;14.192;2024-03-08T11:44:45;14.40;;;8.30;;
75456;SDS011;64036;48.266;14.192;2024-03-08T11:47:14;13.00;;;7.60;;
75456;SDS011;64036;48.266;14.192;2024-03-08T11:49:41;11.30;;;6.90;;
75456;SDS011;64036;48.266;14.192;2024-03-08T11:52:13;12.80;;;7.70;;
75456;SDS011;64036;48.266;14.192;2024-03-08T11:54:53;15.20;;;7.90;;
75456;SDS011;64036;48.266;14.192;2024-03-08T11:57:25;12.90;;;7.50;;
75456;SDS011;64036;48.266;14.192;2024-03-08T11:59:55;11.80;;;7.50;;
75456;SDS011;64036;48.266;14.192;2024-03-08T12:02:22;12.20;;;7.60;;
75456;SDS011;64036;48.266;14.192;2024-03-08T12:04:59;14.20;;;8.40;;
75456;SDS011;64036;48.266;14.192;2024-03-08T12:07:26;12.60;;;7.60;;
75456;SDS011;64036;48.266;14.192;2024-03-08T12:10:18;11.60;;;7.30;;
75456;SDS011;64036;48.266;14.192;2024-03-08T12:12:49;14.00;;;8.50;;
75456;SDS011;64036;48.266;14.192;2024-03-08T12:15:17;12.70;;;7.70;;
75456;SDS011;64036;48.266;14.192;2024-03-08T12:17:45;15.00;;;8.10;;
75456;SDS011;64036;48.266;14.192;2024-03-08T12:20:26;15.40;;;7.80;;
75456;SDS011;64036;48.266;14.192;2024-03-08T12:22:57;15.00;;;8.50;;
75456;SDS011;64036;48.266;14.192;2024-03-08T12:25:27;14.10;;;9.10;;
75456;SDS011;64036;48.266;14.192;2024-03-08T12:27:55;11.40;;;6.70;;
75456;SDS011;64036;48.266;14.192;2024-03-08T12:30:24;13.20;;;7.20;;
75456;SDS011;64036;48.266;14.192;2024-03-08T12:32:59;12.70;;;8.20;;
75456;SDS011;64036;48.266;14.192;2024-03-08T12:35:27;12.30;;;6.90;;
75456;SDS011;64036;48.266;14.192;2024-03-08T12:37:55;14.10;;;8.50;;
75456;SDS011;64036;48.266;14.192;2024-03-08T12:40:30;12.80;;;7.80;;
75456;SDS011;64036;48.266;14.192;2024-03-08T12:43:01;13.10;;;7.60;;
75456;SDS011;64036;48.266;14.192;2024-03-08T12:45:27;12.50;;;7.50;;
75456;SDS011;64036;48.266;14.192;2024-03-08T12:47:54;11.10;;;6.80;;
75456;SDS011;64036;48.266;14.192;2024-03-08T12:50:23;10.70;;;6.50;;
75456;SDS011;64036;48.266;14.192;2024-03-08T12:52:52;12.90;;;7.30;;
75456;SDS011;64036;48.266;14.192;2024-03-08T12:55:18;11.40;;;6.70;;
75456;SDS011;64036;48.266;14.192;2024-03-08T12:57:44;11.00;;;6.80;;
75456;SDS011;64036;48.266;14.192;2024-03-08T13:00:12;12.30;;;6.90;;
75456;SDS011;64036;48.266;14.192;2024-03-08T13:02:45;13.70;;;7.60;;
75456;SDS011;64036;48.266;14.192;2024-03-08T13:05:15;14.30;;;7.90;;
75456;SDS011;64036;48.266;14.192;2024-03-08T13:07:41;11.00;;;6.20;;
75456;SDS011;64036;48.266;14.192;2024-03-08T13:10:12;12.30;;;6.80;;
75456;SDS011;64036;48.266;14.192;2024-03-08T13:12:44;11.40;;;6.30;;
75456;SDS011;64036;48.266;14.192;2024-03-08T13:15:10;10.50;;;6.10;;
75456;SDS011;64036;48.266;14.192;2024-03-08T13:17:40;11.10;;;6.70;;
75456;SDS011;64036;48.266;14.192;2024-03-08T13:20:08;11.40;;;6.70;;
75456;SDS011;64036;48.266;14.192;2024-03-08T13:22:35;9.60;;;6.00;;
75456;SDS011;64036;48.266;14.192;2024-03-08T13:25:02;13.00;;;6.90;;
75456;SDS011;64036;48.266;14.192;2024-03-08T13:27:28;11.10;;;6.30;;
75456;SDS011;64036;48.266;14.192;2024-03-08T13:29:54;10.60;;;6.20;;
75456;SDS011;64036;48.266;14.192;2024-03-08T13:32:20;10.20;;;5.60;;
75456;SDS011;64036;48.266;14.192;2024-03-08T13:34:46;9.80;;;5.60;;
75456;SDS011;64036;48.266;14.192;2024-03-08T13:37:16;11.70;;;6.40;;
75456;SDS011;64036;48.266;14.192;2024-03-08T13:39:42;10.80;;;6.20;;
75456;SDS011;64036;48.266;14.192;2024-03-08T13:42:12;10.30;;;6.20;;
75456;SDS011;64036;48.266;14.192;2024-03-08T13:44:48;11.10;;;6.30;;
75456;SDS011;64036;48.266;14.192;2024-03-08T13:47:18;11.20;;;6.20;;
75456;SDS011;64036;48.266;14.192;2024-03-08T13:49:44;10.80;;;6.00;;
75456;SDS011;64036;48.266;14.192;2024-03-08T13:52:10;9.70;;;5.30;;
75456;SDS011;64036;48.266;14.192;2024-03-08T13:54:37;10.50;;;6.10;;
75456;SDS011;64036;48.266;14.192;2024-03-08T13:57:04;10.70;;;6.10;;
75456;SDS011;64036;48.266;14.192;2024-03-08T13:59:33;9.20;;;5.30;;
75456;SDS011;64036;48.266;14.192;2024-03-08T14:02:01;9.50;;;5.20;;
75456;SDS011;64036;48.266;14.192;2024-03-08T14:04:30;10.70;;;6.00;;
75456;SDS011;64036;48.266;14.192;2024-03-08T14:06:56;9.90;;;5.50;;
75456;SDS011;64036;48.266;14.192;2024-03-08T14:09:26;10.20;;;6.10;;
75456;SDS011;64036;48.266;14.192;2024-03-08T14:11:54;9.70;;;5.40;;
75456;SDS011;64036;48.266;14.192;2024-03-08T14:14:24;10.60;;;6.20;;
75456;SDS011;64036;48.266;14.192;2024-03-08T14:16:50;9.80;;;6.30;;
75456;SDS011;64036;48.266;14.192;2024-03-08T14:19:20;10.60;;;6.00;;
75456;SDS011;64036;48.266;14.192;2024-03-08T14:21:46;9.60;;;5.20;;
75456;SDS011;64036;48.266;14.192;2024-03-08T14:24:17;8.80;;;5.60;;
75456;SDS011;64036;48.266;14.192;2024-03-08T14:26:44;10.40;;;5.90;;
75456;SDS011;64036;48.266;14.192;2024-03-08T14:29:10;10.90;;;5.40;;
75456;SDS011;64036;48.266;14.192;2024-03-08T14:31:36;9.20;;;5.50;;
75456;SDS011;64036;48.266;14.192;2024-03-08T14:34:02;9.80;;;6.50;;